Lewistown Municipal Airport
KLWT : rendu visible

Aérodrome :











RETROUVEZ-NOUS SUR...

 
LOGIN :

S'inscrire | Disclaimer

   EN    FR    IT 

 









Légende :    VFR   VFR Marginal   IFR   IFR Intensif   IFR Très Intensif
Visi : 
Plafond : 
>= 8 km
>= 3000ft
5 à 8 km
1000 à 3000 ft
1500m à 5 km
500 à 1000 ft
800 à 1500m
200 à 500 ft
< 800m
< 200 ft
Symboles :   Orages  Brouillard  Fortes neiges  Fortes précipitations  Vent > 20 kt






- Altitude de l'aérodrome : 4170 ft
- Code IATA : LWT


KLWT - Lewistown Municipal

DERNIER METAR :
  • 310654Z AUTO 11010KT 10SM CLR 18/13 A2982 RMK AO2 SLP061 T01780128 402440100

METARs EXPIRÉS :
  • 310554Z AUTO 10011KT 10SM CLR 18/13 A2984 RMK AO2 SLP069 T01780128 10222 20178 58010
  • 310454Z AUTO 10018KT 10SM CLR 18/13 A2988 RMK AO2 SLP084 T01780128

TAF KLWT
Valide du 31 à 06h jusqu'au 01 à 06h UTC


310520Z 3106/0106 12012G20KT P6SM FEW090 FEW250
FM311000 15010G18KT P6SM FEW100 FEW250 WS020/22035KT
FM311500 23015G25KT P6SM SCT100
FIR KZLC / Amérique du Nord



MET'MAP, la Météo Aéronautique d'un coup d'oeil ! - Copyright ORBIFLY Décembre 2007 - Disclaimer

ORBIFLY MET'MAP TEAM :

Programmation & Développement : Alexandra Zaïnal
Sur une idée originale de : Baudouin d'Aumeries
Assistance à la programmation : Marc-Olivier Méhu
Soutien technique & logistique : Manuel Goepfert

Contact : metmap@orbifly.com




SOURCES & CREDITS :

   NOAA       Earth
Advisory